sensor_id;sensor_type;location;lat;lon;timestamp;pressure;altitude;pressure_sealevel;temperature;humidity
25498;BME280;13406;53.380;7.226;2023-07-20T00:00:26;102070.50;;;15.81;100.00
25498;BME280;13406;53.380;7.226;2023-07-20T00:02:51;102126.09;;;15.84;100.00
25498;BME280;13406;53.380;7.226;2023-07-20T00:05:17;102162.53;;;15.88;100.00
25498;BME280;13406;53.380;7.226;2023-07-20T00:07:50;102173.75;;;15.85;100.00
25498;BME280;13406;53.380;7.226;2023-07-20T00:10:17;102194.94;;;16.23;100.00
25498;BME280;13406;53.380;7.226;2023-07-20T00:12:42;102127.16;;;15.96;100.00
25498;BME280;13406;53.380;7.226;2023-07-20T00:15:13;102156.44;;;16.41;100.00
25498;BME280;13406;53.380;7.226;2023-07-20T00:17:38;102058.91;;;16.01;100.00
25498;BME280;13406;53.380;7.226;2023-07-20T00:20:06;102079.56;;;16.09;100.00
25498;BME280;13406;53.380;7.226;2023-07-20T00:22:31;102074.97;;;16.16;100.00
25498;BME280;13406;53.380;7.226;2023-07-20T00:24:57;102115.38;;;16.24;100.00
25498;BME280;13406;53.380;7.226;2023-07-20T00:27:22;102095.97;;;16.00;100.00
25498;BME280;13406;53.380;7.226;2023-07-20T00:29:48;102106.66;;;16.48;100.00
25498;BME280;13406;53.380;7.226;2023-07-20T00:32:13;102037.63;;;15.78;100.00
25498;BME280;13406;53.380;7.226;2023-07-20T00:34:39;102082.44;;;16.07;100.00
25498;BME280;13406;53.380;7.226;2023-07-20T00:37:04;102038.28;;;15.93;100.00
25498;BME280;13406;53.380;7.226;2023-07-20T00:39:30;102094.13;;;16.14;100.00
25498;BME280;13406;53.380;7.226;2023-07-20T00:41:55;102079.09;;;15.92;100.00
25498;BME280;13406;53.380;7.226;2023-07-20T00:44:20;102132.63;;;16.10;100.00
25498;BME280;13406;53.380;7.226;2023-07-20T00:46:46;102066.25;;;15.59;100.00
25498;BME280;13406;53.380;7.226;2023-07-20T00:49:12;102108.03;;;16.04;100.00
25498;BME280;13406;53.380;7.226;2023-07-20T00:51:38;101986.25;;;15.98;100.00
25498;BME280;13406;53.380;7.226;2023-07-20T00:54:04;101959.00;;;15.86;100.00
25498;BME280;13406;53.380;7.226;2023-07-20T00:56:30;102008.31;;;16.01;100.00
25498;BME280;13406;53.380;7.226;2023-07-20T00:58:55;102019.16;;;16.01;100.00
25498;BME280;13406;53.380;7.226;2023-07-20T01:01:22;102015.59;;;15.88;100.00
25498;BME280;13406;53.380;7.226;2023-07-20T01:03:48;102057.22;;;15.93;100.00
25498;BME280;13406;53.380;7.226;2023-07-20T01:09:07;102099.25;;;15.82;100.00
25498;BME280;13406;53.380;7.226;2023-07-20T01:14:23;102074.09;;;15.89;100.00
25498;BME280;13406;53.380;7.226;2023-07-20T01:16:49;102025.06;;;15.64;100.00
25498;BME280;13406;53.380;7.226;2023-07-20T01:19:17;102078.22;;;15.78;100.00
25498;BME280;13406;53.380;7.226;2023-07-20T01:27:26;102119.78;;;15.70;100.00
25498;BME280;13406;53.380;7.226;2023-07-20T01:30:03;102131.84;;;15.68;100.00
25498;BME280;13406;53.380;7.226;2023-07-20T01:32:34;102066.47;;;15.57;100.00
25498;BME280;13406;53.380;7.226;2023-07-20T01:35:02;102067.41;;;15.85;100.00
25498;BME280;13406;53.380;7.226;2023-07-20T01:37:30;102042.75;;;15.59;100.00
25498;BME280;13406;53.380;7.226;2023-07-20T01:39:56;102007.94;;;15.36;100.00
25498;BME280;13406;53.380;7.226;2023-07-20T01:42:22;102053.09;;;15.49;100.00
25498;BME280;13406;53.380;7.226;2023-07-20T01:44:52;102075.78;;;15.48;100.00
25498;BME280;13406;53.380;7.226;2023-07-20T01:47:18;102064.66;;;15.30;100.00
25498;BME280;13406;53.380;7.226;2023-07-20T01:49:44;102077.50;;;15.63;100.00
25498;BME280;13406;53.380;7.226;2023-07-20T01:52:09;102028.75;;;15.43;100.00
25498;BME280;13406;53.380;7.226;2023-07-20T01:54:35;102039.50;;;15.29;100.00
25498;BME280;13406;53.380;7.226;2023-07-20T01:57:00;102045.47;;;15.18;100.00
25498;BME280;13406;53.380;7.226;2023-07-20T01:59:26;102043.00;;;15.23;100.00
25498;BME280;13406;53.380;7.226;2023-07-20T02:01:52;102035.97;;;15.29;100.00
25498;BME280;13406;53.380;7.226;2023-07-20T02:04:17;101974.53;;;15.03;100.00
25498;BME280;13406;53.380;7.226;2023-07-20T02:06:43;101992.06;;;14.79;100.00
25498;BME280;13406;53.380;7.226;2023-07-20T02:09:08;102027.47;;;14.97;100.00
25498;BME280;13406;53.380;7.226;2023-07-20T02:11:34;102034.31;;;14.93;100.00
25498;BME280;13406;53.380;7.226;2023-07-20T02:13:59;102033.69;;;14.91;100.00
25498;BME280;13406;53.380;7.226;2023-07-20T02:16:24;101991.03;;;14.52;100.00
25498;BME280;13406;53.380;7.226;2023-07-20T02:18:50;102023.31;;;14.66;100.00
25498;BME280;13406;53.380;7.226;2023-07-20T02:21:15;102031.78;;;14.85;100.00
25498;BME280;13406;53.380;7.226;2023-07-20T02:23:41;102005.50;;;14.44;100.00
25498;BME280;13406;53.380;7.226;2023-07-20T02:26:06;102003.94;;;14.35;100.00
25498;BME280;13406;53.380;7.226;2023-07-20T02:28:32;102050.16;;;14.46;100.00
25498;BME280;13406;53.380;7.226;2023-07-20T02:30:57;102093.31;;;14.61;100.00
25498;BME280;13406;53.380;7.226;2023-07-20T02:33:22;102057.41;;;14.46;100.00
25498;BME280;13406;53.380;7.226;2023-07-20T02:35:48;102044.44;;;14.56;100.00
25498;BME280;13406;53.380;7.226;2023-07-20T02:38:14;102068.78;;;14.63;100.00
25498;BME280;13406;53.380;7.226;2023-07-20T02:40:39;102038.00;;;14.57;100.00
25498;BME280;13406;53.380;7.226;2023-07-20T02:43:05;102062.19;;;14.44;100.00
25498;BME280;13406;53.380;7.226;2023-07-20T02:45:30;102059.94;;;14.26;100.00
25498;BME280;13406;53.380;7.226;2023-07-20T02:47:56;101990.50;;;14.13;100.00
25498;BME280;13406;53.380;7.226;2023-07-20T02:50:22;102062.53;;;14.56;100.00
25498;BME280;13406;53.380;7.226;2023-07-20T02:52:47;102036.09;;;13.87;100.00
25498;BME280;13406;53.380;7.226;2023-07-20T02:55:13;102104.44;;;13.94;100.00
25498;BME280;13406;53.380;7.226;2023-07-20T02:57:38;102076.41;;;13.73;100.00
25498;BME280;13406;53.380;7.226;2023-07-20T03:00:04;102112.53;;;13.94;100.00
25498;BME280;13406;53.380;7.226;2023-07-20T03:02:31;102142.81;;;13.74;100.00
25498;BME280;13406;53.380;7.226;2023-07-20T03:04:56;102130.16;;;13.60;100.00
25498;BME280;13406;53.380;7.226;2023-07-20T03:07:27;102179.44;;;14.20;100.00
25498;BME280;13406;53.380;7.226;2023-07-20T03:09:53;102103.25;;;14.18;100.00
25498;BME280;13406;53.380;7.226;2023-07-20T03:12:20;102089.81;;;14.46;100.00
25498;BME280;13406;53.380;7.226;2023-07-20T03:14:46;102017.78;;;14.46;100.00
25498;BME280;13406;53.380;7.226;2023-07-20T03:17:11;101993.94;;;14.29;100.00
25498;BME280;13406;53.380;7.226;2023-07-20T03:19:36;101998.72;;;14.27;100.00
25498;BME280;13406;53.380;7.226;2023-07-20T03:22:02;101904.69;;;13.52;100.00
25498;BME280;13406;53.380;7.226;2023-07-20T03:24:27;101968.47;;;13.88;100.00
25498;BME280;13406;53.380;7.226;2023-07-20T03:26:53;102000.75;;;14.24;100.00
25498;BME280;13406;53.380;7.226;2023-07-20T03:29:18;101903.94;;;13.87;100.00
25498;BME280;13406;53.380;7.226;2023-07-20T03:31:44;101965.53;;;14.33;100.00
25498;BME280;13406;53.380;7.226;2023-07-20T03:34:09;101959.72;;;14.29;100.00
25498;BME280;13406;53.380;7.226;2023-07-20T03:36:35;101941.69;;;14.36;100.00
25498;BME280;13406;53.380;7.226;2023-07-20T03:39:00;101899.94;;;14.32;100.00
25498;BME280;13406;53.380;7.226;2023-07-20T03:41:25;101896.16;;;13.98;100.00
25498;BME280;13406;53.380;7.226;2023-07-20T03:43:51;101838.28;;;13.73;100.00
25498;BME280;13406;53.380;7.226;2023-07-20T03:46:17;101984.00;;;14.29;100.00
25498;BME280;13406;53.380;7.226;2023-07-20T03:48:42;102019.66;;;14.24;100.00
25498;BME280;13406;53.380;7.226;2023-07-20T03:51:08;101939.13;;;13.78;100.00
25498;BME280;13406;53.380;7.226;2023-07-20T03:53:33;102019.09;;;14.29;100.00
25498;BME280;13406;53.380;7.226;2023-07-20T03:55:59;101951.41;;;14.31;100.00
25498;BME280;13406;53.380;7.226;2023-07-20T03:58:24;101905.63;;;14.16;100.00
25498;BME280;13406;53.380;7.226;2023-07-20T04:00:51;101952.59;;;14.50;100.00
25498;BME280;13406;53.380;7.226;2023-07-20T04:03:17;101922.91;;;14.21;100.00
25498;BME280;13406;53.380;7.226;2023-07-20T04:05:43;101938.59;;;14.67;100.00
25498;BME280;13406;53.380;7.226;2023-07-20T04:08:09;101934.84;;;14.62;100.00
25498;BME280;13406;53.380;7.226;2023-07-20T04:10:36;101888.16;;;14.75;100.00
25498;BME280;13406;53.380;7.226;2023-07-20T04:13:02;101864.38;;;15.05;100.00
25498;BME280;13406;53.380;7.226;2023-07-20T04:15:27;101873.63;;;14.76;100.00
25498;BME280;13406;53.380;7.226;2023-07-20T04:17:53;101881.69;;;14.69;100.00
25498;BME280;13406;53.380;7.226;2023-07-20T04:20:18;101883.31;;;14.63;100.00
25498;BME280;13406;53.380;7.226;2023-07-20T04:22:44;101854.50;;;14.77;100.00
25498;BME280;13406;53.380;7.226;2023-07-20T04:25:09;101842.44;;;14.73;100.00
25498;BME280;13406;53.380;7.226;2023-07-20T04:27:35;101810.88;;;14.74;100.00
25498;BME280;13406;53.380;7.226;2023-07-20T04:30:01;101898.63;;;14.91;100.00
25498;BME280;13406;53.380;7.226;2023-07-20T04:32:28;101949.91;;;14.84;100.00
25498;BME280;13406;53.380;7.226;2023-07-20T04:34:54;101967.91;;;14.71;100.00
25498;BME280;13406;53.380;7.226;2023-07-20T04:37:19;101893.41;;;14.20;100.00
25498;BME280;13406;53.380;7.226;2023-07-20T04:39:45;101995.31;;;15.09;100.00
25498;BME280;13406;53.380;7.226;2023-07-20T04:42:10;101833.28;;;14.67;100.00
25498;BME280;13406;53.380;7.226;2023-07-20T04:44:36;101947.06;;;14.99;100.00
25498;BME280;13406;53.380;7.226;2023-07-20T04:47:01;101976.66;;;15.14;100.00
25498;BME280;13406;53.380;7.226;2023-07-20T04:49:28;101947.81;;;15.28;100.00
25498;BME280;13406;53.380;7.226;2023-07-20T04:51:53;101910.63;;;15.43;100.00
25498;BME280;13406;53.380;7.226;2023-07-20T04:54:19;101870.22;;;15.15;100.00
25498;BME280;13406;53.380;7.226;2023-07-20T04:56:45;101877.53;;;15.28;100.00
25498;BME280;13406;53.380;7.226;2023-07-20T04:59:10;101904.56;;;15.41;100.00
25498;BME280;13406;53.380;7.226;2023-07-20T05:01:36;101922.44;;;15.29;100.00
25498;BME280;13406;53.380;7.226;2023-07-20T05:04:02;101956.00;;;15.54;100.00
25498;BME280;13406;53.380;7.226;2023-07-20T05:06:27;101915.16;;;15.23;100.00
25498;BME280;13406;53.380;7.226;2023-07-20T05:08:53;101948.47;;;15.50;100.00
25498;BME280;13406;53.380;7.226;2023-07-20T05:11:18;101947.88;;;15.48;100.00
25498;BME280;13406;53.380;7.226;2023-07-20T05:13:44;101967.22;;;15.65;100.00
25498;BME280;13406;53.380;7.226;2023-07-20T05:16:09;101986.56;;;15.55;100.00
25498;BME280;13406;53.380;7.226;2023-07-20T05:18:34;101913.41;;;15.02;100.00
25498;BME280;13406;53.380;7.226;2023-07-20T05:21:00;101995.25;;;15.37;100.00
25498;BME280;13406;53.380;7.226;2023-07-20T05:23:25;101974.94;;;15.61;100.00
25498;BME280;13406;53.380;7.226;2023-07-20T05:25:58;101991.38;;;15.66;100.00
25498;BME280;13406;53.380;7.226;2023-07-20T05:28:24;101944.72;;;15.44;100.00
25498;BME280;13406;53.380;7.226;2023-07-20T05:30:51;101913.50;;;15.42;100.00
25498;BME280;13406;53.380;7.226;2023-07-20T05:33:21;101920.63;;;15.56;100.00
25498;BME280;13406;53.380;7.226;2023-07-20T05:35:47;101839.47;;;15.36;100.00
25498;BME280;13406;53.380;7.226;2023-07-20T05:38:13;101872.00;;;15.69;100.00
25498;BME280;13406;53.380;7.226;2023-07-20T05:40:43;101846.56;;;15.30;100.00
25498;BME280;13406;53.380;7.226;2023-07-20T05:43:10;101930.13;;;15.25;100.00
25498;BME280;13406;53.380;7.226;2023-07-20T05:45:35;101916.91;;;15.64;100.00
25498;BME280;13406;53.380;7.226;2023-07-20T05:48:01;101864.69;;;15.63;100.00
25498;BME280;13406;53.380;7.226;2023-07-20T05:50:26;101843.28;;;15.75;100.00
25498;BME280;13406;53.380;7.226;2023-07-20T05:52:53;101798.72;;;15.64;100.00
25498;BME280;13406;53.380;7.226;2023-07-20T05:55:19;101834.13;;;15.89;100.00
25498;BME280;13406;53.380;7.226;2023-07-20T05:57:45;101839.13;;;15.92;100.00
25498;BME280;13406;53.380;7.226;2023-07-20T06:00:12;101801.66;;;15.89;100.00
25498;BME280;13406;53.380;7.226;2023-07-20T06:02:38;101676.25;;;15.37;100.00
25498;BME280;13406;53.380;7.226;2023-07-20T06:05:05;101729.47;;;15.70;100.00
25498;BME280;13406;53.380;7.226;2023-07-20T06:07:32;101730.88;;;15.92;100.00
25498;BME280;13406;53.380;7.226;2023-07-20T06:09:57;101751.72;;;15.92;100.00
25498;BME280;13406;53.380;7.226;2023-07-20T06:12:23;101752.97;;;15.89;100.00
25498;BME280;13406;53.380;7.226;2023-07-20T06:14:49;101711.59;;;15.69;100.00
25498;BME280;13406;53.380;7.226;2023-07-20T06:17:14;101742.50;;;15.99;100.00
25498;BME280;13406;53.380;7.226;2023-07-20T06:19:40;101715.09;;;15.76;100.00
25498;BME280;13406;53.380;7.226;2023-07-20T06:22:05;101785.41;;;15.96;100.00
25498;BME280;13406;53.380;7.226;2023-07-20T06:24:31;101790.41;;;16.06;100.00
25498;BME280;13406;53.380;7.226;2023-07-20T06:26:56;101733.97;;;16.02;100.00
25498;BME280;13406;53.380;7.226;2023-07-20T06:29:21;101709.88;;;15.94;100.00
25498;BME280;13406;53.380;7.226;2023-07-20T06:31:47;101722.63;;;16.32;100.00
25498;BME280;13406;53.380;7.226;2023-07-20T06:34:12;101718.19;;;16.44;100.00
25498;BME280;13406;53.380;7.226;2023-07-20T06:36:38;101726.00;;;16.21;100.00
25498;BME280;13406;53.380;7.226;2023-07-20T06:39:03;101728.47;;;16.29;100.00
25498;BME280;13406;53.380;7.226;2023-07-20T06:41:29;101761.66;;;16.04;100.00
25498;BME280;13406;53.380;7.226;2023-07-20T06:43:54;101760.81;;;16.04;100.00
25498;BME280;13406;53.380;7.226;2023-07-20T06:46:26;101755.00;;;16.00;100.00
25498;BME280;13406;53.380;7.226;2023-07-20T06:48:53;101744.56;;;16.11;100.00
25498;BME280;13406;53.380;7.226;2023-07-20T06:51:20;101721.31;;;15.90;100.00
25498;BME280;13406;53.380;7.226;2023-07-20T06:53:45;101678.91;;;15.70;100.00
25498;BME280;13406;53.380;7.226;2023-07-20T06:56:11;101729.13;;;16.18;100.00
25498;BME280;13406;53.380;7.226;2023-07-20T06:58:36;101738.31;;;16.10;100.00
25498;BME280;13406;53.380;7.226;2023-07-20T07:01:07;101732.63;;;16.25;100.00
25498;BME280;13406;53.380;7.226;2023-07-20T07:03:32;101813.63;;;16.33;100.00
25498;BME280;13406;53.380;7.226;2023-07-20T07:05:59;101769.59;;;16.51;100.00
25498;BME280;13406;53.380;7.226;2023-07-20T07:08:24;101697.16;;;16.40;100.00
25498;BME280;13406;53.380;7.226;2023-07-20T07:10:50;101703.00;;;16.37;100.00
25498;BME280;13406;53.380;7.226;2023-07-20T07:13:15;101678.09;;;16.60;100.00
25498;BME280;13406;53.380;7.226;2023-07-20T07:15:41;101657.44;;;16.65;100.00
25498;BME280;13406;53.380;7.226;2023-07-20T07:18:06;101671.97;;;16.71;100.00
25498;BME280;13406;53.380;7.226;2023-07-20T07:20:31;101646.03;;;16.57;100.00
25498;BME280;13406;53.380;7.226;2023-07-20T07:22:57;101649.00;;;16.48;100.00
25498;BME280;13406;53.380;7.226;2023-07-20T07:25:22;101727.66;;;16.67;100.00
25498;BME280;13406;53.380;7.226;2023-07-20T07:27:48;101714.50;;;16.32;100.00
25498;BME280;13406;53.380;7.226;2023-07-20T07:30:13;101724.75;;;16.62;100.00
25498;BME280;13406;53.380;7.226;2023-07-20T07:32:39;101682.19;;;16.69;100.00
25498;BME280;13406;53.380;7.226;2023-07-20T07:35:05;101692.88;;;16.64;100.00
25498;BME280;13406;53.380;7.226;2023-07-20T07:37:30;101665.50;;;16.79;100.00
25498;BME280;13406;53.380;7.226;2023-07-20T07:39:57;101632.81;;;16.99;100.00
25498;BME280;13406;53.380;7.226;2023-07-20T07:42:22;101579.13;;;16.89;100.00
25498;BME280;13406;53.380;7.226;2023-07-20T07:44:48;101542.41;;;16.68;100.00
25498;BME280;13406;53.380;7.226;2023-07-20T07:47:13;101586.03;;;16.85;100.00
25498;BME280;13406;53.380;7.226;2023-07-20T07:49:39;101671.53;;;17.06;100.00
25498;BME280;13406;53.380;7.226;2023-07-20T07:52:05;101695.00;;;17.19;100.00
25498;BME280;13406;53.380;7.226;2023-07-20T07:54:31;101659.47;;;17.02;100.00
25498;BME280;13406;53.380;7.226;2023-07-20T07:56:56;101618.50;;;16.91;100.00
25498;BME280;13406;53.380;7.226;2023-07-20T07:59:22;101631.59;;;16.94;100.00
25498;BME280;13406;53.380;7.226;2023-07-20T08:01:47;101602.84;;;16.93;100.00
25498;BME280;13406;53.380;7.226;2023-07-20T08:04:13;101617.69;;;17.09;100.00
25498;BME280;13406;53.380;7.226;2023-07-20T08:06:39;101619.31;;;17.17;100.00
25498;BME280;13406;53.380;7.226;2023-07-20T08:09:04;101682.66;;;17.23;100.00
25498;BME280;13406;53.380;7.226;2023-07-20T08:11:30;101622.19;;;17.22;100.00
25498;BME280;13406;53.380;7.226;2023-07-20T08:13:56;101611.53;;;17.21;100.00
25498;BME280;13406;53.380;7.226;2023-07-20T08:16:22;101524.81;;;17.02;100.00
25498;BME280;13406;53.380;7.226;2023-07-20T08:18:47;101495.28;;;17.12;100.00
25498;BME280;13406;53.380;7.226;2023-07-20T08:21:13;101458.94;;;17.02;100.00
25498;BME280;13406;53.380;7.226;2023-07-20T08:23:38;101491.34;;;17.27;100.00
25498;BME280;13406;53.380;7.226;2023-07-20T08:26:04;101486.31;;;17.30;100.00
25498;BME280;13406;53.380;7.226;2023-07-20T08:28:29;101477.78;;;17.45;100.00
25498;BME280;13406;53.380;7.226;2023-07-20T08:30:54;101428.03;;;17.21;100.00
25498;BME280;13406;53.380;7.226;2023-07-20T08:33:20;101485.69;;;17.47;100.00
25498;BME280;13406;53.380;7.226;2023-07-20T08:35:46;101481.19;;;17.40;100.00
25498;BME280;13406;53.380;7.226;2023-07-20T08:38:12;101449.47;;;17.41;100.00
25498;BME280;13406;53.380;7.226;2023-07-20T08:40:42;101483.97;;;17.64;100.00
25498;BME280;13406;53.380;7.226;2023-07-20T08:43:10;101444.44;;;17.26;100.00
25498;BME280;13406;53.380;7.226;2023-07-20T08:45:38;101425.31;;;17.21;100.00
25498;BME280;13406;53.380;7.226;2023-07-20T08:48:06;101475.44;;;17.49;100.00
25498;BME280;13406;53.380;7.226;2023-07-20T08:50:32;101465.97;;;17.39;100.00
25498;BME280;13406;53.380;7.226;2023-07-20T08:52:58;101483.63;;;17.60;100.00
25498;BME280;13406;53.380;7.226;2023-07-20T08:55:26;101480.81;;;17.67;100.00
25498;BME280;13406;53.380;7.226;2023-07-20T08:57:56;101483.66;;;17.72;100.00
25498;BME280;13406;53.380;7.226;2023-07-20T09:00:22;101489.81;;;17.68;100.00
25498;BME280;13406;53.380;7.226;2023-07-20T09:02:50;101478.88;;;17.56;100.00
25498;BME280;13406;53.380;7.226;2023-07-20T09:05:17;101361.59;;;17.00;100.00
25498;BME280;13406;53.380;7.226;2023-07-20T09:07:43;101496.50;;;17.65;100.00
25498;BME280;13406;53.380;7.226;2023-07-20T09:10:09;101496.13;;;17.61;100.00
25498;BME280;13406;53.380;7.226;2023-07-20T09:12:39;101430.47;;;17.41;100.00
25498;BME280;13406;53.380;7.226;2023-07-20T09:15:08;101483.28;;;17.87;100.00
25498;BME280;13406;53.380;7.226;2023-07-20T09:17:33;101490.09;;;17.78;100.00
25498;BME280;13406;53.380;7.226;2023-07-20T09:20:03;101491.34;;;17.45;100.00
25498;BME280;13406;53.380;7.226;2023-07-20T09:22:38;101498.41;;;17.46;100.00
25498;BME280;13406;53.380;7.226;2023-07-20T09:25:11;101493.41;;;17.80;100.00
25498;BME280;13406;53.380;7.226;2023-07-20T09:27:40;101497.47;;;18.01;100.00
25498;BME280;13406;53.380;7.226;2023-07-20T09:30:06;101497.03;;;17.55;100.00
25498;BME280;13406;53.380;7.226;2023-07-20T09:32:49;101498.63;;;17.63;100.00
25498;BME280;13406;53.380;7.226;2023-07-20T09:35:22;101487.41;;;17.90;100.00
25498;BME280;13406;53.380;7.226;2023-07-20T09:40:20;101489.03;;;17.79;100.00
25498;BME280;13406;53.380;7.226;2023-07-20T09:42:46;101449.94;;;17.68;100.00
25498;BME280;13406;53.380;7.226;2023-07-20T09:45:12;101493.34;;;17.98;100.00
25498;BME280;13406;53.380;7.226;2023-07-20T09:47:38;101412.16;;;17.67;100.00
25498;BME280;13406;53.380;7.226;2023-07-20T09:50:05;101433.03;;;17.66;100.00
25498;BME280;13406;53.380;7.226;2023-07-20T09:52:39;101483.22;;;18.05;100.00
25498;BME280;13406;53.380;7.226;2023-07-20T09:55:10;101439.63;;;17.58;100.00
25498;BME280;13406;53.380;7.226;2023-07-20T09:57:37;101492.19;;;18.06;100.00
25498;BME280;13406;53.380;7.226;2023-07-20T10:00:07;101489.38;;;18.24;100.00
25498;BME280;13406;53.380;7.226;2023-07-20T10:02:42;101485.84;;;18.36;100.00
25498;BME280;13406;53.380;7.226;2023-07-20T10:05:11;101452.50;;;18.05;100.00
25498;BME280;13406;53.380;7.226;2023-07-20T10:07:50;101469.41;;;18.19;100.00
25498;BME280;13406;53.380;7.226;2023-07-20T10:10:17;101495.53;;;18.43;100.00
25498;BME280;13406;53.380;7.226;2023-07-20T10:12:46;101491.28;;;18.47;100.00
25498;BME280;13406;53.380;7.226;2023-07-20T10:15:20;101491.25;;;18.24;100.00
25498;BME280;13406;53.380;7.226;2023-07-20T10:20:35;101452.09;;;18.55;100.00
25498;BME280;13406;53.380;7.226;2023-07-20T10:23:04;101486.22;;;18.74;100.00
25498;BME280;13406;53.380;7.226;2023-07-20T10:25:30;101489.97;;;18.38;100.00
25498;BME280;13406;53.380;7.226;2023-07-20T10:27:56;101485.16;;;18.28;100.00
25498;BME280;13406;53.380;7.226;2023-07-20T10:30:22;101465.41;;;18.21;100.00
25498;BME280;13406;53.380;7.226;2023-07-20T10:32:48;101485.19;;;18.76;100.00
25498;BME280;13406;53.380;7.226;2023-07-20T10:35:16;101505.69;;;18.48;100.00
25498;BME280;13406;53.380;7.226;2023-07-20T10:37:56;101494.59;;;18.38;100.00
25498;BME280;13406;53.380;7.226;2023-07-20T10:40:33;101498.00;;;18.21;100.00
25498;BME280;13406;53.380;7.226;2023-07-20T10:43:04;101501.47;;;18.64;100.00
25498;BME280;13406;53.380;7.226;2023-07-20T10:45:51;101498.88;;;18.81;100.00
25498;BME280;13406;53.380;7.226;2023-07-20T10:49:03;101493.41;;;19.04;100.00
25498;BME280;13406;53.380;7.226;2023-07-20T10:51:30;101491.91;;;18.85;100.00
25498;BME280;13406;53.380;7.226;2023-07-20T10:54:01;101486.44;;;18.96;100.00
25498;BME280;13406;53.380;7.226;2023-07-20T10:56:27;101485.38;;;19.09;100.00
25498;BME280;13406;53.380;7.226;2023-07-20T10:59:00;101471.69;;;18.92;100.00
25498;BME280;13406;53.380;7.226;2023-07-20T11:01:30;101468.59;;;18.65;100.00
25498;BME280;13406;53.380;7.226;2023-07-20T11:03:58;101485.66;;;19.36;100.00
25498;BME280;13406;53.380;7.226;2023-07-20T11:09:03;101487.25;;;18.97;100.00
25498;BME280;13406;53.380;7.226;2023-07-20T11:11:31;101458.13;;;18.81;100.00
25498;BME280;13406;53.380;7.226;2023-07-20T11:13:58;101491.06;;;18.96;100.00
25498;BME280;13406;53.380;7.226;2023-07-20T11:16:45;101485.72;;;18.66;100.00
25498;BME280;13406;53.380;7.226;2023-07-20T11:19:21;101490.97;;;18.79;100.00
25498;BME280;13406;53.380;7.226;2023-07-20T11:21:58;101494.25;;;18.69;100.00
25498;BME280;13406;53.380;7.226;2023-07-20T11:24:24;101490.81;;;19.09;100.00
25498;BME280;13406;53.380;7.226;2023-07-20T11:26:51;101482.06;;;19.07;100.00
25498;BME280;13406;53.380;7.226;2023-07-20T11:29:21;101489.19;;;18.85;100.00
25498;BME280;13406;53.380;7.226;2023-07-20T11:31:47;101483.47;;;19.10;100.00
25498;BME280;13406;53.380;7.226;2023-07-20T11:34:15;101477.66;;;19.06;100.00
25498;BME280;13406;53.380;7.226;2023-07-20T11:36:42;101464.06;;;19.06;100.00
25498;BME280;13406;53.380;7.226;2023-07-20T11:39:09;101490.59;;;18.99;100.00
25498;BME280;13406;53.380;7.226;2023-07-20T11:41:35;101497.69;;;18.77;100.00
25498;BME280;13406;53.380;7.226;2023-07-20T11:44:01;101491.03;;;19.08;100.00
25498;BME280;13406;53.380;7.226;2023-07-20T11:46:28;101493.22;;;19.34;100.00
25498;BME280;13406;53.380;7.226;2023-07-20T11:49:01;101478.47;;;19.30;100.00
25498;BME280;13406;53.380;7.226;2023-07-20T11:51:27;101493.81;;;19.36;100.00
25498;BME280;13406;53.380;7.226;2023-07-20T11:53:53;101487.91;;;19.28;100.00
25498;BME280;13406;53.380;7.226;2023-07-20T11:56:19;101465.34;;;19.27;100.00
25498;BME280;13406;53.380;7.226;2023-07-20T11:58:45;101483.34;;;19.16;100.00
25498;BME280;13406;53.380;7.226;2023-07-20T12:01:15;101471.13;;;19.31;100.00
25498;BME280;13406;53.380;7.226;2023-07-20T12:03:44;101450.28;;;18.96;100.00
25498;BME280;13406;53.380;7.226;2023-07-20T12:06:10;101481.72;;;19.44;100.00
25498;BME280;13406;53.380;7.226;2023-07-20T12:08:41;101478.56;;;19.24;100.00
25498;BME280;13406;53.380;7.226;2023-07-20T12:11:07;101476.56;;;19.59;100.00
25498;BME280;13406;53.380;7.226;2023-07-20T12:13:42;101435.94;;;19.12;100.00
25498;BME280;13406;53.380;7.226;2023-07-20T12:16:15;101470.19;;;19.25;100.00
25498;BME280;13406;53.380;7.226;2023-07-20T12:18:43;101465.91;;;19.58;100.00
25498;BME280;13406;53.380;7.226;2023-07-20T12:21:09;101480.41;;;19.75;100.00
25498;BME280;13406;53.380;7.226;2023-07-20T12:23:37;101474.25;;;19.80;100.00
25498;BME280;13406;53.380;7.226;2023-07-20T12:26:06;101472.78;;;19.60;100.00
25498;BME280;13406;53.380;7.226;2023-07-20T12:28:31;101459.72;;;19.46;100.00
25498;BME280;13406;53.380;7.226;2023-07-20T12:30:57;101458.63;;;19.47;100.00
25498;BME280;13406;53.380;7.226;2023-07-20T12:33:22;101464.78;;;19.82;100.00
25498;BME280;13406;53.380;7.226;2023-07-20T12:35:49;101473.16;;;19.81;100.00
25498;BME280;13406;53.380;7.226;2023-07-20T12:38:15;101439.28;;;19.89;100.00
25498;BME280;13406;53.380;7.226;2023-07-20T12:40:41;101429.81;;;19.91;100.00
25498;BME280;13406;53.380;7.226;2023-07-20T12:43:07;101455.88;;;20.21;100.00
25498;BME280;13406;53.380;7.226;2023-07-20T12:45:33;101468.38;;;19.71;100.00
25498;BME280;13406;53.380;7.226;2023-07-20T12:47:58;101442.94;;;19.37;100.00
25498;BME280;13406;53.380;7.226;2023-07-20T12:50:24;101442.91;;;19.77;100.00
25498;BME280;13406;53.380;7.226;2023-07-20T12:52:50;101455.38;;;19.73;100.00
25498;BME280;13406;53.380;7.226;2023-07-20T12:55:15;101439.97;;;19.67;100.00
25498;BME280;13406;53.380;7.226;2023-07-20T12:57:41;101454.31;;;19.91;100.00